KRID/RID METAR and TAF weather

Enter ICAO airport designator
Station Type Date Time Source
KRID METAR 2018/12/11 17:55 UTC NOAA

KRID 111755Z AUTO 24013KT 10SM CLR 02/M02 A3009 RMK AO2


Station Type Date Time Source
KRID Decoded METAR 2018/12/11 17:55 UTC NOAA

Station name not available
Dec 11, 2018 - 12:55 PM EST / 2018.12.11 1755 UTC
Wind: from the WSW (240 degrees) at 15 MPH (13 KT):0
Visibility: 10 mile(s):0
Sky conditions: clear
Temperature: 35 F (2 C)
Windchill: 24 F (-4 C):1
Dew Point: 28 F (-2 C)
Relative Humidity: 74%
Pressure (altimeter): 30.09 in. Hg (1018 hPa)
ob: KRID 111755Z AUTO 24013KT 10SM CLR 02/M02 A3009 RMK AO2
cycle: 18

Station Type Date Time Source
KRID TAF UTC NOAA

Error!


Example: see airport list